Ardmore, Missouri
Current Conditions -  °F | °C
As of 10:55 AM on Sunday 23 Nov 2014 (Local Time) from KIRK Reporting Station
Light Rain Light Rain  
Wind Chill: 54°   Ceiling: 600
Heat Index: 54°   Visibility: 6mi
Dew Point: 53°   Wind: 14mph
Humidity: 97%   Direction: 180°S
Pressure: 29.5"   Gusts: NA
Location:  39.6493°N, 92.4492°W
Report Text: KIRK 231655Z AUTO 18012KT 6SM -RA BR OVC006 12/12 A2950 RMK AO2 SLP991 P0003 T01220117
Loading
Personal Weather Stations






























Interactive Weather Map New forecast layout! Learn more

10-Day Weather Forecast

Advertisements
Track Severe Weather on mobile